CheckWX is a tool to help pilots better visualize weather data.  It is not intended as a substitute for an official pre-flight weather briefing.

20:21:19 UTC

KOWB METAR
Owensboro-Daviess County Regional Airport
Owensboro, Kentucky, USA
Current

25 mins ago

KOWB 161956Z 29005KT 10SM CLR 12/M01 A3007 RMK AO2 SLP185 T01221011
Observed
Feb-16 @ 19:56 UTC
Wind
  • 290° at 5 KTS
Visibility
10 SM
Flight Rules
VFR
Cloud Levels
  • Clear skies
Temperature
12°C / 54°F
Dewpoint
-1°C / 30°F
Humidity
41%
Altimeter
30.07" Hg
Pressure
1018.32 hPa
Previous

1 hour ago

KOWB 161856Z 32007KT 10SM CLR 13/M01 A3008 RMK AO2 SLP186 T01281006
Observed
Feb-16 @ 18:56 UTC
Wind
  • 320° at 7 KTS
Visibility
10 SM
Flight Rules
VFR
Cloud Levels
  • Clear skies
Temperature
13°C / 55°F
Dewpoint
-1°C / 30°F
Humidity
38%
Altimeter
30.08" Hg
Pressure
1018.62 hPa
Previous

2 hours ago

KOWB 161756Z 00000KT 10SM SCT065 11/01 A3011 RMK AO2 SLP197 T01110006 10117 20028 58008
Observed
Feb-16 @ 17:56 UTC
Visibility
10 SM
Flight Rules
VFR
Cloud Levels
  • Scattered at 6,500' AGL
Temperature
11°C / 52°F
Dewpoint
C / 34°F
Humidity
50%
Altimeter
30.11" Hg
Pressure
1019.62 hPa